Latest Weather Observations for Paraburdoo

IDW60801

Issued at 12:05 am WST Thursday 27 November 2014 (issued every 30 minutes, with the page automatically refreshed every 10 minutes)

About weather observations | Map of weather stations | Latest weather observations for WA | Other Formats
Station Details ID: 007185 Name: PARABURDOO AERO Lat: -23.17 Lon: 117.75 Height: 423.7 m
Data from the previous 72 hours. | See also: Recent months at Paraburdoo
Date/Time
WST
Temp
°C
App
Temp
°C
Dew
Point
Rel
Hum
%
Delta-T
°C
Wind Press
QNH
hPa
Press
MSL
hPa
Rain
since 9 am
mm
Dir
 
Spd
km/h
Gust
km/h
Spd
kts
Gust
kts
27/12:00am 22.6 22.4 18.6 78 2.6 E 17 20 9 11 1012.6 1009.5 1.0
 
Date/Time
WST
Temp
°C
App
Temp
°C
Dew
Point
Rel
Hum
%
Delta-T
°C
Wind Press
QNH
hPa
Press
MSL
hPa
Rain
since 9 am
mm
Dir
 
Spd
km/h
Gust
km/h
Spd
kts
Gust
kts
26/11:30pm 22.7 23.4 18.0 75 3.0 E 11 17 6 9 1012.8 1009.7 1.0
26/11:00pm 22.9 25.4 19.1 79 2.5 NE 4 7 2 4 1013.0 1009.9 1.0
26/10:30pm 22.8 24.1 19.2 80 2.3 ENE 11 13 6 7 1012.8 1009.7 1.0
26/10:00pm 22.7 22.3 18.0 75 3.0 ENE 17 28 9 15 1012.7 1009.6 1.0
26/09:30pm 23.0 22.0 17.9 73 3.2 ENE 20 30 11 16 1012.6 1009.5 1.0
26/09:00pm 23.6 22.2 16.9 66 4.2 E 20 37 11 20 1012.4 1009.3 1.0
26/08:30pm 23.4 21.6 17.8 71 3.6 E 24 43 13 23 1011.6 1008.4 1.0
26/08:02pm 24.5 20.5 16.7 61 4.9 E 33 52 18 28 1010.8 1007.7 1.0
26/08:00pm 24.5 20.5 16.7 61 4.9 E 33 48 18 26 1010.7 1007.6 1.0
26/07:50pm 24.6 20.0 17.1 63 4.7 E 37 56 20 30 1010.0 1006.8 1.0
26/07:30pm 24.7 20.9 18.2 67 4.2 E 35 50 19 27 1009.9 1006.7 1.0
26/07:16pm 26.1 22.6 16.6 55 6.0 E 30 48 16 26 1009.9 1006.7 1.0
26/07:00pm 26.2 25.9 16.4 54 6.2 ESE 13 39 7 21 1009.4 1006.2 1.0
26/06:30pm 26.9 24.7 16.8 54 6.4 E 24 28 13 15 1009.6 1006.4 1.0
26/06:02pm 26.0 24.8 18.4 63 4.9 SSE 22 35 12 19 1008.2 1005.1 1.0
26/06:00pm 26.0 25.4 18.9 65 4.6 SSE 20 35 11 19 1008.3 1005.2 1.0
26/05:43pm 26.5 25.3 18.4 61 5.2 E 22 30 12 16 1007.9 1004.7 1.0
26/05:30pm 29.7 25.6 15.0 40 9.1 E 30 41 16 22 1007.5 1004.3 0.2
26/05:00pm 31.2 27.0 13.5 34 10.8 E 28 39 15 21 1006.9 1003.7 0.2
26/04:30pm 31.5 27.5 14.2 35 10.7 E 28 37 15 20 1007.0 1003.8 0.2
26/04:00pm 29.6 25.1 15.3 41 8.9 E 33 52 18 28 1007.1 1003.9 0.0
26/03:56pm 29.2 24.7 15.3 42 8.7 ESE 33 52 18 28 1007.1 1003.9 0.0
26/03:30pm 30.4 25.6 14.1 37 10.0 ESE 32 44 17 24 1007.1 1003.9 0.0
26/03:22pm 30.9 26.5 14.1 36 10.3 ESE 30 44 16 24 1007.0 1003.8 0.0
26/03:00pm 35.1 32.3 12.7 26 13.8 S 19 24 10 13 1007.0 1003.8 0.0
26/02:30pm 36.8 33.8 9.4 19 16.1 ENE 15 22 8 12 1007.5 1004.3 0.0
26/02:00pm 35.2 33.2 10.3 22 14.8 ESE 11 22 6 12 1008.0 1004.8 0.0
26/01:30pm 36.9 34.3 9.5 19 16.1 NNE 13 24 7 13 1008.4 1005.3 0.0
26/01:00pm 36.0 33.4 9.5 20 15.6 NNE 13 19 7 10 1008.7 1005.5 0.0
26/12:30pm 36.7 33.3 9.3 19 16.1 NNE 17 26 9 14 1009.2 1006.0 0.0
26/12:00pm 36.8 33.1 10.2 20 15.8 N 20 33 11 18 1009.7 1006.5 0.0
26/11:30am 37.3 33.9 10.6 20 16.0 NNE 19 35 10 19 1010.4 1007.3 0.0
26/11:00am 34.9 31.3 10.7 23 14.4 ENE 20 30 11 16 1010.9 1007.8 0.0
26/10:30am 35.9 32.2 11.5 23 14.7 NNE 22 30 12 16 1011.4 1008.2 0.0
26/10:00am 33.4 30.0 11.3 26 13.2 N 20 28 11 15 1011.7 1008.5 0.0
26/09:30am 33.7 29.2 11.5 26 13.3 NE 26 37 14 20 1012.0 1008.8 0.0
26/09:00am 32.5 27.9 12.2 29 12.2 ENE 28 39 15 21 1012.2 1009.0 0.2
26/08:30am 30.8 26.4 11.7 31 11.3 NE 26 33 14 18 1012.4 1009.3 0.2
26/08:00am 30.0 25.7 12.0 33 10.7 NE 26 37 14 20 1012.6 1009.5 0.2
26/07:30am 29.2 24.0 11.7 34 10.3 NE 30 41 16 22 1012.6 1009.5 0.2
26/07:00am 26.8 23.4 12.4 40 8.5 ENE 22 28 12 15 1012.7 1009.6 0.2
26/06:30am 26.1 23.0 12.2 42 8.1 ENE 20 28 11 15 1012.6 1009.5 0.2
26/06:00am 25.7 22.9 12.5 44 7.8 NE 19 26 10 14 1012.6 1009.5 0.2
26/05:30am 25.1 21.9 13.0 47 7.2 ENE 22 30 12 16 1011.7 1008.5 0.2
26/05:00am 25.1 21.5 13.0 47 7.2 ENE 24 33 13 18 1011.8 1008.6 0.2
26/04:30am 25.2 21.1 12.8 46 7.3 ENE 26 33 14 18 1011.8 1008.6 0.2
26/04:00am 25.4 21.3 12.6 45 7.5 ENE 26 35 14 19 1011.8 1008.6 0.2
26/03:30am 25.6 20.4 12.8 45 7.6 ENE 32 43 17 23 1011.9 1008.7 0.2
26/03:00am 25.5 20.7 13.0 46 7.4 ENE 30 43 16 23 1011.6 1008.4 0.2
26/02:30am 25.5 19.9 13.4 47 7.2 ENE 35 48 19 26 1011.7 1008.5 0.2
26/02:17am 25.5 19.9 13.4 47 7.2 ENE 35 54 19 29 1011.6 1008.4 0.2
26/02:00am 25.4 20.3 13.6 48 7.1 ENE 33 44 18 24 1011.6 1008.4 0.2
26/01:30am 25.5 20.0 13.7 48 7.1 ENE 35 48 19 26 1011.6 1008.4 0.2
26/01:00am 26.0 18.9 13.5 46 7.5 ENE 43 63 23 34 1011.6 1008.4 0.2
26/12:55am 26.2 21.1 13.7 46 7.5 ENE 33 56 18 30 1011.7 1008.5 0.2
26/12:30am 26.0 22.2 13.5 46 7.5 ENE 26 33 14 18 1011.7 1008.5 0.2
26/12:00am 26.3 22.2 13.8 46 7.5 ENE 28 39 15 21 1011.5 1008.3 0.2
 
Date/Time
WST
Temp
°C
App
Temp
°C
Dew
Point
Rel
Hum
%
Delta-T
°C
Wind Press
QNH
hPa
Press
MSL
hPa
Rain
since 9 am
mm
Dir
 
Spd
km/h
Gust
km/h
Spd
kts
Gust
kts
25/11:30pm 26.9 22.0 13.6 44 8.0 ENE 32 44 17 24 1011.5 1008.3 0.2
25/11:14pm 27.3 22.5 14.0 44 8.1 ENE 32 54 17 29 1011.6 1008.4 0.2
25/11:00pm 27.5 21.7 13.8 43 8.3 ENE 37 52 20 28 1011.6 1008.4 0.2
25/10:30pm 28.0 22.8 14.6 44 8.2 ENE 35 59 19 32 1011.8 1008.6 0.2
25/10:12pm 29.2 24.5 14.2 40 9.2 E 32 50 17 27 1011.8 1008.6 0.2
25/10:00pm 29.4 25.0 14.0 39 9.4 E 30 41 16 22 1011.2 1008.0 0.2
25/09:30pm 30.8 27.6 13.1 34 10.7 E 22 32 12 17 1010.6 1007.5 0.2
25/09:00pm 33.0 30.5 9.7 24 13.6 E 13 19 7 10 1009.1 1005.9 0.2
25/08:58pm 33.0 30.7 9.1 23 13.8 E 11 17 6 9 1009.0 1005.8 0.2
25/08:38pm 33.1 31.2 9.2 23 13.8 E 9 13 5 7 1009.0 1005.8 0.2
25/08:30pm 32.7 30.0 8.9 23 13.6 ESE 13 17 7 9 1009.0 1005.8 0.2
25/08:14pm 32.1 29.9 10.7 27 12.6 SSE 13 22 7 12 1009.0 1005.8 0.2
25/08:10pm 32.0 29.0 10.7 27 12.5 SSW 17 22 9 12 1009.4 1006.2 0.2
25/08:00pm 30.1 23.3 12.1 33 10.7 WSW 39 57 21 31 1009.6 1006.4 0.2
25/07:57pm 31.0 26.1 13.7 34 10.6 WSW 32 57 17 31 1009.5 1006.3 0.2
25/07:54pm 34.0 32.7 12.4 27 13.1 ENE 11 19 6 10 1009.0 1005.8 0.2
25/07:30pm 35.2 31.2 8.1 19 15.5 ENE 19 26 10 14 1007.9 1004.7 0.2
25/07:00pm 33.4 32.4 14.5 32 11.8 SE 13 19 7 10 1008.0 1004.8 0.0
25/06:30pm 35.5 29.6 7.5 18 15.9 ENE 28 48 15 26 1007.5 1004.3 0.0
25/06:29pm 35.6 29.3 7.6 18 15.9 ENE 30 48 16 26 1007.4 1004.2 0.0
25/06:25pm 35.5 28.3 7.5 18 15.9 NE 35 48 19 26 1007.4 1004.2 0.0
25/06:12pm 34.8 28.8 8.5 20 15.1 E 30 44 16 24 1007.1 1003.9 0.0
25/06:06pm 39.8 35.6 3.8 11 19.7 NNW 15 20 8 11 1007.1 1003.9 0.0
25/06:00pm 40.3 35.2 2.8 10 20.4 W 19 28 10 15 1006.6 1003.4 0.0
25/05:30pm 40.7 36.7 3.1 10 20.5 W 13 20 7 11 1006.0 1002.9 0.0
25/05:00pm 41.1 37.2 3.4 10 20.7 WSW 13 15 7 8 1005.9 1002.8 0.0
25/04:30pm 41.0 35.8 3.4 10 20.6 W 20 32 11 17 1006.2 1003.0 0.0
25/04:00pm 40.4 37.8 4.3 11 20.0 NE 7 15 4 8 1006.4 1003.2 0.0
25/03:30pm 40.4 36.4 2.9 10 20.3 NNW 13 19 7 10 1007.0 1003.8 0.0
25/03:00pm 40.5 35.4 4.3 11 20.1 WNW 20 26 11 14 1007.3 1004.1 0.0
25/02:30pm 41.1 35.5 3.4 10 20.7 N 22 30 12 16 1007.8 1004.6 0.0
25/02:00pm 41.3 35.0 3.6 10 20.8 NW 26 30 14 16 1008.3 1005.2 0.0
25/01:30pm 39.7 36.6 3.7 11 19.7 E 9 22 5 12 1009.0 1005.8 0.0
25/01:00pm 39.2 35.1 4.6 12 19.2 NE 15 24 8 13 1009.3 1006.1 0.0
25/12:30pm 39.7 36.9 5.0 12 19.4 NNE 9 24 5 13 1009.8 1006.6 0.0
25/12:00pm 38.2 35.6 6.0 14 18.1 WNW 9 19 5 10 1010.2 1007.1 0.0
25/11:30am 37.5 35.0 6.5 15 17.5 ENE 9 17 5 9 1010.8 1007.7 0.0
25/11:00am 37.5 34.2 6.5 15 17.5 ENE 13 17 7 9 1011.4 1008.2 0.0
25/10:30am 36.4 31.8 6.6 16 16.8 NNE 20 22 11 12 1011.8 1008.6 0.0
25/10:00am 35.7 33.3 6.9 17 16.2 ENE 9 24 5 13 1012.1 1008.9 0.0
25/09:30am 35.1 32.4 7.2 18 15.7 NNE 11 19 6 10 1012.3 1009.1 0.0
25/09:00am 33.3 31.6 5.8 18 15.0 ENE 4 7 2 4 1012.6 1009.5 0.0
25/08:30am 32.1 29.9 6.3 20 14.1 NE 7 13 4 7 1012.6 1009.5 0.0
25/08:00am 31.3 29.9 7.1 22 13.4 SSW 4 9 2 5 1012.7 1009.6 0.0
25/07:30am 30.4 28.4 7.0 23 12.9 S 7 9 4 5 1012.5 1009.4 0.0
25/07:00am 29.8 28.4 8.8 27 11.9 NE 6 7 3 4 1012.5 1009.4 0.0
25/06:30am 28.3 26.8 8.6 29 11.0 E 6 9 3 5 1012.4 1009.3 0.0
25/06:00am 25.5 23.8 8.5 34 9.3 E 7 9 4 5 1012.1 1008.9 0.0
25/05:30am 24.2 22.1 8.2 36 8.7 NNE 9 11 5 6 1011.9 1008.7 0.0
25/05:00am 23.8 22.0 7.8 36 8.6 E 7 9 4 5 1011.7 1008.5 0.0
25/04:30am 24.5 22.3 8.0 35 8.9 ENE 9 11 5 6 1011.4 1008.2 0.0
25/04:00am 25.5 23.7 7.1 31 9.9 N 6 9 3 5 1011.0 1007.9 0.0
25/03:30am 27.3 25.6 7.7 29 10.7 WNW 6 13 3 7 1010.9 1007.8 0.0
25/03:00am 28.0 25.4 7.8 28 11.1 WNW 11 13 6 7 1010.7 1007.6 0.0
25/02:30am 28.6 26.0 7.8 27 11.5 WNW 11 15 6 8 1010.7 1007.6 0.0
25/02:00am 29.7 25.9 7.6 25 12.2 WNW 17 20 9 11 1010.6 1007.5 0.0
25/01:30am 30.2 26.0 7.4 24 12.6 WNW 19 24 10 13 1010.5 1007.4 0.0
25/01:00am 30.9 26.3 6.7 22 13.3 WNW 20 26 11 14 1010.7 1007.6 0.0
25/12:30am 31.5 26.7 5.8 20 13.9 WNW 20 33 11 18 1010.9 1007.8 0.0
25/12:00am 32.2 26.6 3.2 16 15.1 WNW 22 30 12 16 1010.8 1007.7 0.0
 
Date/Time
WST
Temp
°C
App
Temp
°C
Dew
Point
Rel
Hum
%
Delta-T
°C
Wind Press
QNH
hPa
Press
MSL
hPa
Rain
since 9 am
mm
Dir
 
Spd
km/h
Gust
km/h
Spd
kts
Gust
kts
24/11:30pm 31.0 29.7 6.1 21 13.5 SSW 2 9 1 5 1010.7 1007.6 0.0
24/11:00pm 30.6 28.2 7.1 23 13.0 NNE 9 9 5 5 1010.8 1007.7 0.0
24/10:30pm 32.7 30.3 6.8 20 14.4 N 9 15 5 8 1011.0 1007.9 0.0
24/10:00pm 33.2 30.3 4.9 17 15.3 NNE 9 13 5 7 1011.0 1007.9 0.0
24/09:30pm 34.3 30.1 4.0 15 16.2 ESE 15 22 8 12 1010.6 1007.5 0.0
24/09:00pm 34.5 31.3 5.0 16 16.1 SSE 11 15 6 8 1010.5 1007.4 0.0
24/08:30pm 34.3 30.3 6.6 18 15.4 NE 17 20 9 11 1010.8 1007.7 0.0
24/08:00pm 34.9 31.9 6.2 17 15.9 NNE 11 15 6 8 1010.8 1007.7 0.0
24/07:30pm 35.0 31.5 5.4 16 16.2 ENE 13 17 7 9 1010.2 1007.1 0.0
24/07:00pm 35.9 31.6 5.2 15 16.9 NE 17 24 9 13 1009.8 1006.6 0.0
24/06:30pm 36.5 33.0 3.7 13 17.7 ESE 11 17 6 9 1009.0 1005.8 0.0
24/06:00pm 36.2 29.5 3.4 13 17.6 E 28 37 15 20 1008.9 1005.7 0.0
24/05:32pm 37.4 30.8 4.4 13 18.0 NNE 28 46 15 25 1008.3 1005.2 0.0
24/05:30pm 38.0 32.1 3.7 12 18.6 NNE 24 39 13 21 1008.4 1005.3 0.0
24/05:00pm 39.2 35.2 0.6 9 20.1 WNW 11 20 6 11 1008.2 1005.1 0.0
24/04:30pm 38.9 34.5 0.3 9 20.0 NW 13 17 7 9 1008.2 1005.1 0.0
24/04:00pm 39.2 34.5 0.6 9 20.1 NW 15 19 8 10 1008.4 1005.3 0.0
24/03:30pm 39.3 34.6 0.6 9 20.2 N 15 24 8 13 1008.7 1005.5 0.0
24/03:00pm 39.9 35.6 1.1 9 20.5 WNW 13 22 7 12 1008.9 1005.7 0.0
24/02:30pm 40.1 35.1 1.2 9 20.5 NW 17 24 9 13 1009.3 1006.1 0.0
24/02:00pm 40.3 36.4 1.4 9 20.7 N 11 26 6 14 1009.7 1006.5 0.0
24/01:30pm 39.6 35.5 2.3 10 20.0 NNE 13 22 7 12 1010.2 1007.1 0.0
24/01:00pm 38.6 34.4 1.6 10 19.5 NNE 13 22 7 12 1010.7 1007.6 0.0
24/12:30pm 38.4 34.8 2.8 11 19.1 NE 11 26 6 14 1011.2 1008.0 0.0
24/12:00pm 37.3 33.0 3.1 12 18.3 E 15 28 8 15 1011.9 1008.7 0.0
24/11:30am 37.1 34.3 3.0 12 18.2 WNW 7 13 4 7 1012.2 1009.0 0.0
24/11:00am 35.7 32.9 1.9 12 17.6 SSE 6 17 3 9 1012.5 1009.4 0.0
24/10:30am 36.3 32.6 2.4 12 17.9 SE 11 26 6 14 1012.8 1009.7 0.0
24/10:00am 36.2 31.2 1.1 11 18.1 SE 17 24 9 13 1013.3 1010.2 0.0
24/09:30am 35.1 30.3 0.2 11 17.6 ENE 15 28 8 15 1013.6 1010.4 0.0
24/09:00am 34.6 28.8 -1.4 10 17.7 ENE 19 24 10 13 1013.8 1010.6 0.0
24/08:30am 34.5 29.6 -0.2 11 17.4 E 15 30 8 16 1013.8 1010.6 0.0
24/08:00am 32.4 28.4 0.5 13 15.9 NE 11 17 6 9 1013.8 1010.6 0.0
24/07:30am 30.1 27.8 0.6 15 14.5 SSE 2 9 1 5 1013.7 1010.5 0.0
24/07:00am 28.5 25.8 2.7 19 13.0 ESE 6 7 3 4 1013.4 1010.3 0.0
24/06:30am 26.0 23.4 3.3 23 11.4 ENE 6 6 3 3 1013.3 1010.2 0.0
24/06:00am 23.3 20.1 3.3 27 9.9 NE 9 11 5 6 1013.2 1010.1 0.0
24/05:30am 21.6 18.8 2.3 28 9.2 ESE 6 7 3 4 1013.1 1010.0 0.0
24/05:00am 21.8 18.5 2.5 28 9.3 NE 9 11 5 6 1012.9 1009.8 0.0
24/04:30am 21.8 18.9 2.5 28 9.3 E 7 9 4 5 1012.7 1009.6 0.0
24/04:00am 21.8 19.1 2.5 28 9.3 ENE 6 6 3 3 1012.5 1009.4 0.0
24/03:30am 22.3 19.4 2.4 27 9.6 ENE 7 9 4 5 1012.4 1009.3 0.0
24/03:00am 22.3 20.7 2.4 27 9.6 CALM 0 0 0 0 1012.5 1009.4 0.0
24/02:30am 23.4 20.5 2.8 26 10.1 NE 7 9 4 5 1012.5 1009.4 0.0
24/02:00am 24.1 22.6 2.9 25 10.5 CALM 0 0 0 0 1012.7 1009.6 0.0
24/01:30am 24.9 23.4 3.0 24 10.9 CALM 0 0 0 0 1012.7 1009.6 0.0
24/01:00am 24.6 22.7 2.7 24 10.8 NW 2 6 1 3 1012.8 1009.7 0.0
24/12:30am 27.1 24.3 2.9 21 12.2 WNW 7 7 4 4 1013.0 1009.9 0.0

Other Formats:

Comma delimited format used in spreadsheet applications
http://www.bom.gov.au/fwo/IDW60801/IDW60801.94316.axf

JavaScript Object Notation format (JSON) in row-major order
http://www.bom.gov.au/fwo/IDW60801/IDW60801.94316.json